sensor_id;sensor_type;location;lat;lon;timestamp;temperature;humidity
23323;DHT22;11833;52.554;13.554;2023-08-07T12:05:24;19.80;99.90
23323;DHT22;11833;52.554;13.554;2023-08-07T12:07:50;19.70;99.90
23323;DHT22;11833;52.554;13.554;2023-08-07T12:10:17;19.90;99.90
23323;DHT22;11833;52.554;13.554;2023-08-07T12:12:43;20.30;99.90
23323;DHT22;11833;52.554;13.554;2023-08-07T12:15:10;20.30;99.90
23323;DHT22;11833;52.554;13.554;2023-08-07T12:17:36;20.30;99.90
23323;DHT22;11833;52.554;13.554;2023-08-07T12:20:06;20.20;99.90
23323;DHT22;11833;52.554;13.554;2023-08-07T12:22:36;20.40;99.60
23323;DHT22;11833;52.554;13.554;2023-08-07T12:25:02;20.60;98.00
23323;DHT22;11833;52.554;13.554;2023-08-07T12:27:28;20.70;96.60
23323;DHT22;11833;52.554;13.554;2023-08-07T12:29:54;20.90;95.40
23323;DHT22;11833;52.554;13.554;2023-08-07T12:32:19;21.00;95.50
23323;DHT22;11833;52.554;13.554;2023-08-07T12:34:45;21.10;94.20
23323;DHT22;11833;52.554;13.554;2023-08-07T12:37:11;21.20;94.00
23323;DHT22;11833;52.554;13.554;2023-08-07T12:39:37;21.40;93.00
23323;DHT22;11833;52.554;13.554;2023-08-07T12:42:03;21.40;92.90
23323;DHT22;11833;52.554;13.554;2023-08-07T12:44:30;21.40;92.10
23323;DHT22;11833;52.554;13.554;2023-08-07T12:46:56;21.40;91.30
23323;DHT22;11833;52.554;13.554;2023-08-07T12:49:22;21.40;91.20
23323;DHT22;11833;52.554;13.554;2023-08-07T12:51:49;21.70;91.00
23323;DHT22;11833;52.554;13.554;2023-08-07T12:54:14;21.90;90.10
23323;DHT22;11833;52.554;13.554;2023-08-07T12:56:40;22.10;89.30
23323;DHT22;11833;52.554;13.554;2023-08-07T12:59:06;22.10;87.10
23323;DHT22;11833;52.554;13.554;2023-08-07T13:01:32;22.20;84.80
23323;DHT22;11833;52.554;13.554;2023-08-07T13:03:58;22.20;82.80
23323;DHT22;11833;52.554;13.554;2023-08-07T13:06:24;22.00;82.60
23323;DHT22;11833;52.554;13.554;2023-08-07T13:08:49;21.80;83.60
23323;DHT22;11833;52.554;13.554;2023-08-07T13:11:15;21.90;85.30
23323;DHT22;11833;52.554;13.554;2023-08-07T13:13:41;21.70;82.60
23323;DHT22;11833;52.554;13.554;2023-08-07T13:16:06;22.20;81.90
23323;DHT22;11833;52.554;13.554;2023-08-07T13:18:32;22.40;81.50
23323;DHT22;11833;52.554;13.554;2023-08-07T13:20:58;22.50;79.50
23323;DHT22;11833;52.554;13.554;2023-08-07T13:23:24;22.50;78.70
23323;DHT22;11833;52.554;13.554;2023-08-07T13:25:50;22.70;78.90
23323;DHT22;11833;52.554;13.554;2023-08-07T13:28:15;22.70;75.10
23323;DHT22;11833;52.554;13.554;2023-08-07T13:30:43;22.80;75.10
23323;DHT22;11833;52.554;13.554;2023-08-07T13:33:09;22.80;74.60
23323;DHT22;11833;52.554;13.554;2023-08-07T13:35:34;22.70;73.00
23323;DHT22;11833;52.554;13.554;2023-08-07T13:38:00;22.80;71.50
23323;DHT22;11833;52.554;13.554;2023-08-07T13:40:30;22.80;71.60
23323;DHT22;11833;52.554;13.554;2023-08-07T13:42:56;22.90;70.20
23323;DHT22;11833;52.554;13.554;2023-08-07T13:45:21;22.80;69.20
23323;DHT22;11833;52.554;13.554;2023-08-07T13:47:48;22.80;67.90
23323;DHT22;11833;52.554;13.554;2023-08-07T13:50:14;22.70;65.70
23323;DHT22;11833;52.554;13.554;2023-08-07T13:52:40;22.40;65.40
23323;DHT22;11833;52.554;13.554;2023-08-07T13:55:06;22.40;64.70
23323;DHT22;11833;52.554;13.554;2023-08-07T13:57:34;22.50;63.20
23323;DHT22;11833;52.554;13.554;2023-08-07T14:00:00;22.60;62.80
23323;DHT22;11833;52.554;13.554;2023-08-07T14:02:25;22.60;62.70
23323;DHT22;11833;52.554;13.554;2023-08-07T14:04:51;22.90;62.30
23323;DHT22;11833;52.554;13.554;2023-08-07T14:07:17;22.80;61.40
23323;DHT22;11833;52.554;13.554;2023-08-07T14:09:43;22.60;61.20
23323;DHT22;11833;52.554;13.554;2023-08-07T14:12:09;22.20;62.50
23323;DHT22;11833;52.554;13.554;2023-08-07T14:14:34;22.10;63.20
23323;DHT22;11833;52.554;13.554;2023-08-07T14:17:00;22.00;64.00
23323;DHT22;11833;52.554;13.554;2023-08-07T14:19:27;21.80;64.30
23323;DHT22;11833;52.554;13.554;2023-08-07T14:21:53;21.60;65.40
23323;DHT22;11833;52.554;13.554;2023-08-07T14:24:19;21.50;65.60
23323;DHT22;11833;52.554;13.554;2023-08-07T14:26:44;21.60;65.90
23323;DHT22;11833;52.554;13.554;2023-08-07T14:29:10;21.50;65.80
23323;DHT22;11833;52.554;13.554;2023-08-07T14:31:37;21.40;66.20
23323;DHT22;11833;52.554;13.554;2023-08-07T14:34:04;21.40;66.00
23323;DHT22;11833;52.554;13.554;2023-08-07T14:36:30;21.30;66.00
23323;DHT22;11833;52.554;13.554;2023-08-07T14:38:56;21.40;65.70
23323;DHT22;11833;52.554;13.554;2023-08-07T14:41:22;21.70;65.30
23323;DHT22;11833;52.554;13.554;2023-08-07T14:43:47;21.70;64.60
23323;DHT22;11833;52.554;13.554;2023-08-07T14:46:14;21.70;64.40
23323;DHT22;11833;52.554;13.554;2023-08-07T14:48:41;21.60;64.30
23323;DHT22;11833;52.554;13.554;2023-08-07T14:51:07;21.40;64.60
23323;DHT22;11833;52.554;13.554;2023-08-07T14:53:32;21.30;65.00
23323;DHT22;11833;52.554;13.554;2023-08-07T14:55:58;21.30;65.30
23323;DHT22;11833;52.554;13.554;2023-08-07T14:58:24;21.30;65.00
23323;DHT22;11833;52.554;13.554;2023-08-07T15:00:53;21.10;66.30
23323;DHT22;11833;52.554;13.554;2023-08-07T15:03:19;21.10;66.50
23323;DHT22;11833;52.554;13.554;2023-08-07T15:05:45;21.00;66.60
23323;DHT22;11833;52.554;13.554;2023-08-07T15:08:11;20.80;67.60
23323;DHT22;11833;52.554;13.554;2023-08-07T15:10:37;20.80;67.50
23323;DHT22;11833;52.554;13.554;2023-08-07T15:13:05;20.70;68.00
23323;DHT22;11833;52.554;13.554;2023-08-07T15:15:31;20.50;68.70
23323;DHT22;11833;52.554;13.554;2023-08-07T15:17:58;20.60;68.90
23323;DHT22;11833;52.554;13.554;2023-08-07T15:20:25;20.60;69.70
23323;DHT22;11833;52.554;13.554;2023-08-07T15:22:50;21.00;68.30
23323;DHT22;11833;52.554;13.554;2023-08-07T15:25:17;21.50;66.80
23323;DHT22;11833;52.554;13.554;2023-08-07T15:27:43;21.70;66.70
23323;DHT22;11833;52.554;13.554;2023-08-07T15:30:09;21.90;64.60
23323;DHT22;11833;52.554;13.554;2023-08-07T15:32:35;21.90;64.00
23323;DHT22;11833;52.554;13.554;2023-08-07T15:35:01;22.10;62.90
23323;DHT22;11833;52.554;13.554;2023-08-07T15:37:27;22.30;63.70
23323;DHT22;11833;52.554;13.554;2023-08-07T15:39:53;22.60;62.50
23323;DHT22;11833;52.554;13.554;2023-08-07T15:42:18;22.60;61.70
23323;DHT22;11833;52.554;13.554;2023-08-07T15:44:44;22.70;61.90
23323;DHT22;11833;52.554;13.554;2023-08-07T15:47:10;22.80;61.50
23323;DHT22;11833;52.554;13.554;2023-08-07T15:49:35;22.20;61.60
23323;DHT22;11833;52.554;13.554;2023-08-07T15:52:01;21.80;63.20
23323;DHT22;11833;52.554;13.554;2023-08-07T15:54:27;21.50;64.90
23323;DHT22;11833;52.554;13.554;2023-08-07T15:56:53;21.30;65.10
23323;DHT22;11833;52.554;13.554;2023-08-07T15:59:18;21.20;65.60
23323;DHT22;11833;52.554;13.554;2023-08-07T16:01:44;21.00;66.30
23323;DHT22;11833;52.554;13.554;2023-08-07T16:04:10;21.00;64.90
23323;DHT22;11833;52.554;13.554;2023-08-07T16:06:36;20.80;66.00
23323;DHT22;11833;52.554;13.554;2023-08-07T16:09:02;20.80;66.90
23323;DHT22;11833;52.554;13.554;2023-08-07T16:11:27;21.10;66.40
23323;DHT22;11833;52.554;13.554;2023-08-07T16:13:53;21.20;66.50
23323;DHT22;11833;52.554;13.554;2023-08-07T16:16:19;21.40;66.10
23323;DHT22;11833;52.554;13.554;2023-08-07T16:18:45;21.80;64.10
23323;DHT22;11833;52.554;13.554;2023-08-07T16:21:11;22.20;61.90
23323;DHT22;11833;52.554;13.554;2023-08-07T16:23:39;22.30;60.50
23323;DHT22;11833;52.554;13.554;2023-08-07T16:26:04;22.30;61.50
23323;DHT22;11833;52.554;13.554;2023-08-07T16:28:31;21.70;61.70
23323;DHT22;11833;52.554;13.554;2023-08-07T16:30:57;21.70;62.60
23323;DHT22;11833;52.554;13.554;2023-08-07T16:33:22;21.30;63.60
23323;DHT22;11833;52.554;13.554;2023-08-07T16:35:48;21.30;63.90
23323;DHT22;11833;52.554;13.554;2023-08-07T16:38:14;21.10;64.60
23323;DHT22;11833;52.554;13.554;2023-08-07T16:40:40;20.80;65.80
23323;DHT22;11833;52.554;13.554;2023-08-07T16:43:06;20.80;66.20
23323;DHT22;11833;52.554;13.554;2023-08-07T16:45:32;20.50;67.00
23323;DHT22;11833;52.554;13.554;2023-08-07T16:47:58;20.40;67.60
23323;DHT22;11833;52.554;13.554;2023-08-07T16:50:26;20.30;67.40
23323;DHT22;11833;52.554;13.554;2023-08-07T16:52:56;20.20;67.60
23323;DHT22;11833;52.554;13.554;2023-08-07T16:55:22;20.10;68.40
23323;DHT22;11833;52.554;13.554;2023-08-07T16:57:48;20.00;67.50
23323;DHT22;11833;52.554;13.554;2023-08-07T17:00:14;20.00;67.70
23323;DHT22;11833;52.554;13.554;2023-08-07T17:02:41;20.00;68.10
23323;DHT22;11833;52.554;13.554;2023-08-07T17:05:07;20.00;67.80
23323;DHT22;11833;52.554;13.554;2023-08-07T17:07:34;19.90;68.00
23323;DHT22;11833;52.554;13.554;2023-08-07T17:10:00;20.00;68.50
23323;DHT22;11833;52.554;13.554;2023-08-07T17:12:26;20.10;67.80
23323;DHT22;11833;52.554;13.554;2023-08-07T17:14:51;20.10;67.90
23323;DHT22;11833;52.554;13.554;2023-08-07T17:17:18;20.00;67.90
23323;DHT22;11833;52.554;13.554;2023-08-07T17:19:43;19.80;68.30
23323;DHT22;11833;52.554;13.554;2023-08-07T17:22:09;19.70;68.90
23323;DHT22;11833;52.554;13.554;2023-08-07T17:24:35;19.60;69.80
23323;DHT22;11833;52.554;13.554;2023-08-07T17:27:01;19.60;69.70
23323;DHT22;11833;52.554;13.554;2023-08-07T17:29:26;19.60;69.20
23323;DHT22;11833;52.554;13.554;2023-08-07T17:31:52;19.60;69.10
23323;DHT22;11833;52.554;13.554;2023-08-07T17:34:23;19.50;69.20
23323;DHT22;11833;52.554;13.554;2023-08-07T17:36:49;19.40;69.70
23323;DHT22;11833;52.554;13.554;2023-08-07T17:39:15;19.40;70.20
23323;DHT22;11833;52.554;13.554;2023-08-07T17:41:42;19.60;69.00
23323;DHT22;11833;52.554;13.554;2023-08-07T17:44:11;19.50;68.80
23323;DHT22;11833;52.554;13.554;2023-08-07T17:46:37;19.40;68.70
23323;DHT22;11833;52.554;13.554;2023-08-07T17:49:03;19.40;68.60
23323;DHT22;11833;52.554;13.554;2023-08-07T17:51:29;19.50;68.60
23323;DHT22;11833;52.554;13.554;2023-08-07T17:53:56;19.50;68.60
23323;DHT22;11833;52.554;13.554;2023-08-07T17:56:22;19.50;68.50
23323;DHT22;11833;52.554;13.554;2023-08-07T17:58:49;19.50;68.20
23323;DHT22;11833;52.554;13.554;2023-08-07T18:01:16;19.30;68.90
23323;DHT22;11833;52.554;13.554;2023-08-07T18:03:45;19.20;69.50
23323;DHT22;11833;52.554;13.554;2023-08-07T18:06:11;19.30;69.00
23323;DHT22;11833;52.554;13.554;2023-08-07T18:08:39;19.50;68.00
23323;DHT22;11833;52.554;13.554;2023-08-07T18:11:05;19.50;66.90
23323;DHT22;11833;52.554;13.554;2023-08-07T18:13:30;19.40;67.50
23323;DHT22;11833;52.554;13.554;2023-08-07T18:15:56;19.20;68.30
23323;DHT22;11833;52.554;13.554;2023-08-07T18:18:23;19.00;68.70
23323;DHT22;11833;52.554;13.554;2023-08-07T18:20:49;18.70;69.90
23323;DHT22;11833;52.554;13.554;2023-08-07T18:23:15;18.60;70.40
23323;DHT22;11833;52.554;13.554;2023-08-07T18:25:41;18.60;71.40
23323;DHT22;11833;52.554;13.554;2023-08-07T18:28:06;18.40;72.00
23323;DHT22;11833;52.554;13.554;2023-08-07T18:30:32;18.40;72.30
23323;DHT22;11833;52.554;13.554;2023-08-07T18:32:58;18.30;73.00
23323;DHT22;11833;52.554;13.554;2023-08-07T18:35:23;18.30;73.30
23323;DHT22;11833;52.554;13.554;2023-08-07T18:37:49;18.30;73.70
23323;DHT22;11833;52.554;13.554;2023-08-07T18:40:15;18.30;74.00
23323;DHT22;11833;52.554;13.554;2023-08-07T18:42:41;18.30;74.90
23323;DHT22;11833;52.554;13.554;2023-08-07T18:45:08;18.10;74.60
23323;DHT22;11833;52.554;13.554;2023-08-07T18:47:34;18.10;75.40
23323;DHT22;11833;52.554;13.554;2023-08-07T18:50:00;18.20;75.40
23323;DHT22;11833;52.554;13.554;2023-08-07T18:52:26;18.10;75.40
23323;DHT22;11833;52.554;13.554;2023-08-07T18:54:52;18.10;75.50
23323;DHT22;11833;52.554;13.554;2023-08-07T18:57:18;18.00;75.60
23323;DHT22;11833;52.554;13.554;2023-08-07T18:59:45;18.10;75.50
23323;DHT22;11833;52.554;13.554;2023-08-07T19:02:10;18.00;75.20
23323;DHT22;11833;52.554;13.554;2023-08-07T19:04:36;18.00;75.10
23323;DHT22;11833;52.554;13.554;2023-08-07T19:07:02;18.00;74.60
23323;DHT22;11833;52.554;13.554;2023-08-07T19:09:28;17.90;74.10
23323;DHT22;11833;52.554;13.554;2023-08-07T19:11:54;17.80;73.90
23323;DHT22;11833;52.554;13.554;2023-08-07T19:14:20;17.80;74.10
23323;DHT22;11833;52.554;13.554;2023-08-07T19:16:46;17.80;73.60
23323;DHT22;11833;52.554;13.554;2023-08-07T19:19:12;17.70;73.70
23323;DHT22;11833;52.554;13.554;2023-08-07T19:21:40;17.70;73.60
23323;DHT22;11833;52.554;13.554;2023-08-07T19:24:06;17.60;73.40
23323;DHT22;11833;52.554;13.554;2023-08-07T19:26:32;17.70;73.50
23323;DHT22;11833;52.554;13.554;2023-08-07T19:28:57;17.60;73.60
23323;DHT22;11833;52.554;13.554;2023-08-07T19:31:23;17.60;74.00
23323;DHT22;11833;52.554;13.554;2023-08-07T19:33:49;17.50;74.10
23323;DHT22;11833;52.554;13.554;2023-08-07T19:36:15;17.50;74.30
23323;DHT22;11833;52.554;13.554;2023-08-07T19:38:40;17.40;74.20
23323;DHT22;11833;52.554;13.554;2023-08-07T19:41:06;17.40;74.80
23323;DHT22;11833;52.554;13.554;2023-08-07T19:43:32;17.50;74.60
23323;DHT22;11833;52.554;13.554;2023-08-07T19:45:58;17.40;74.90
23323;DHT22;11833;52.554;13.554;2023-08-07T19:48:24;17.30;75.60
23323;DHT22;11833;52.554;13.554;2023-08-07T19:50:54;17.20;76.40
23323;DHT22;11833;52.554;13.554;2023-08-07T19:53:20;17.10;77.10
23323;DHT22;11833;52.554;13.554;2023-08-07T19:55:46;17.00;77.90
23323;DHT22;11833;52.554;13.554;2023-08-07T19:58:11;16.90;78.90
23323;DHT22;11833;52.554;13.554;2023-08-07T20:00:37;16.80;79.70
23323;DHT22;11833;52.554;13.554;2023-08-07T20:03:03;16.80;80.00
23323;DHT22;11833;52.554;13.554;2023-08-07T20:05:30;17.00;80.50
23323;DHT22;11833;52.554;13.554;2023-08-07T20:07:56;16.80;81.40
23323;DHT22;11833;52.554;13.554;2023-08-07T20:10:21;16.90;81.90
23323;DHT22;11833;52.554;13.554;2023-08-07T20:12:50;16.90;82.30
23323;DHT22;11833;52.554;13.554;2023-08-07T20:15:16;16.80;83.30
23323;DHT22;11833;52.554;13.554;2023-08-07T20:17:47;16.90;84.00
23323;DHT22;11833;52.554;13.554;2023-08-07T20:20:14;16.90;84.50
23323;DHT22;11833;52.554;13.554;2023-08-07T20:22:41;16.90;85.20
23323;DHT22;11833;52.554;13.554;2023-08-07T20:25:07;16.80;86.10
23323;DHT22;11833;52.554;13.554;2023-08-07T20:27:36;16.80;86.30
23323;DHT22;11833;52.554;13.554;2023-08-07T20:30:04;16.60;88.00
23323;DHT22;11833;52.554;13.554;2023-08-07T20:32:30;16.60;88.00
23323;DHT22;11833;52.554;13.554;2023-08-07T20:34:56;16.90;87.00
23323;DHT22;11833;52.554;13.554;2023-08-07T20:37:22;16.90;86.70
23323;DHT22;11833;52.554;13.554;2023-08-07T20:39:51;16.90;86.50
23323;DHT22;11833;52.554;13.554;2023-08-07T20:42:17;16.70;87.50
23323;DHT22;11833;52.554;13.554;2023-08-07T20:44:43;16.90;87.50
23323;DHT22;11833;52.554;13.554;2023-08-07T20:47:09;16.80;86.90
23323;DHT22;11833;52.554;13.554;2023-08-07T20:49:34;16.70;87.90
23323;DHT22;11833;52.554;13.554;2023-08-07T20:52:00;16.60;88.70
23323;DHT22;11833;52.554;13.554;2023-08-07T20:54:26;16.60;89.20
23323;DHT22;11833;52.554;13.554;2023-08-07T20:56:52;16.50;89.20
23323;DHT22;11833;52.554;13.554;2023-08-07T20:59:17;16.70;88.80
23323;DHT22;11833;52.554;13.554;2023-08-07T21:01:43;16.60;88.40
23323;DHT22;11833;52.554;13.554;2023-08-07T21:04:10;16.50;88.80
23323;DHT22;11833;52.554;13.554;2023-08-07T21:06:36;16.60;89.10
23323;DHT22;11833;52.554;13.554;2023-08-07T21:09:02;16.40;88.90
23323;DHT22;11833;52.554;13.554;2023-08-07T21:11:28;16.40;89.70
23323;DHT22;11833;52.554;13.554;2023-08-07T21:13:54;16.50;89.20
23323;DHT22;11833;52.554;13.554;2023-08-07T21:16:21;16.50;89.50
23323;DHT22;11833;52.554;13.554;2023-08-07T21:18:47;16.50;89.30
23323;DHT22;11833;52.554;13.554;2023-08-07T21:21:13;16.40;89.00
23323;DHT22;11833;52.554;13.554;2023-08-07T21:23:39;16.40;89.40
23323;DHT22;11833;52.554;13.554;2023-08-07T21:26:05;16.40;89.20
23323;DHT22;11833;52.554;13.554;2023-08-07T21:28:32;16.30;89.60
23323;DHT22;11833;52.554;13.554;2023-08-07T21:30:58;16.40;89.50
23323;DHT22;11833;52.554;13.554;2023-08-07T21:33:24;16.40;89.30
23323;DHT22;11833;52.554;13.554;2023-08-07T21:35:50;16.30;89.90
23323;DHT22;11833;52.554;13.554;2023-08-07T21:38:16;16.20;89.80
23323;DHT22;11833;52.554;13.554;2023-08-07T21:40:41;16.10;90.10
23323;DHT22;11833;52.554;13.554;2023-08-07T21:43:07;16.20;90.70
23323;DHT22;11833;52.554;13.554;2023-08-07T21:45:33;16.20;91.10
23323;DHT22;11833;52.554;13.554;2023-08-07T21:47:59;16.50;91.90
23323;DHT22;11833;52.554;13.554;2023-08-07T21:50:24;16.40;91.70
23323;DHT22;11833;52.554;13.554;2023-08-07T21:52:50;16.40;92.20
23323;DHT22;11833;52.554;13.554;2023-08-07T21:55:16;16.20;92.10
23323;DHT22;11833;52.554;13.554;2023-08-07T21:57:45;16.10;92.60
